sensor_id;sensor_type;location;lat;lon;timestamp;pressure;altitude;pressure_sealevel;temperature;humidity
57885;BME280;43703;51.060;-0.086;2022-07-23T00:02:03;100490.41;;;15.05;61.31
57885;BME280;43703;51.060;-0.086;2022-07-23T00:04:28;100493.32;;;15.05;61.76
57885;BME280;43703;51.060;-0.086;2022-07-23T00:06:53;100491.50;;;15.21;60.88
57885;BME280;43703;51.060;-0.086;2022-07-23T00:09:18;100488.14;;;14.90;61.20
57885;BME280;43703;51.060;-0.086;2022-07-23T00:11:43;100487.94;;;15.19;60.94
57885;BME280;43703;51.060;-0.086;2022-07-23T00:14:08;100490.84;;;15.08;60.70
57885;BME280;43703;51.060;-0.086;2022-07-23T00:16:33;100494.67;;;15.15;60.57
57885;BME280;43703;51.060;-0.086;2022-07-23T00:18:59;100500.67;;;15.51;60.56
57885;BME280;43703;51.060;-0.086;2022-07-23T00:21:24;100504.69;;;14.62;61.10
57885;BME280;43703;51.060;-0.086;2022-07-23T00:23:49;100506.61;;;15.21;60.72
57885;BME280;43703;51.060;-0.086;2022-07-23T00:26:15;100506.99;;;14.89;60.53
57885;BME280;43703;51.060;-0.086;2022-07-23T00:28:40;100509.77;;;15.15;60.36
57885;BME280;43703;51.060;-0.086;2022-07-23T00:31:05;100511.45;;;14.64;60.99
57885;BME280;43703;51.060;-0.086;2022-07-23T00:33:30;100514.76;;;14.71;61.09
57885;BME280;43703;51.060;-0.086;2022-07-23T00:35:55;100513.93;;;14.86;61.32
57885;BME280;43703;51.060;-0.086;2022-07-23T00:38:20;100516.09;;;15.07;61.26
57885;BME280;43703;51.060;-0.086;2022-07-23T00:40:45;100516.11;;;14.64;61.40
57885;BME280;43703;51.060;-0.086;2022-07-23T00:43:10;100514.63;;;14.94;61.79
57885;BME280;43703;51.060;-0.086;2022-07-23T00:45:35;100511.10;;;14.93;62.30
57885;BME280;43703;51.060;-0.086;2022-07-23T00:48:01;100507.69;;;14.88;61.85
57885;BME280;43703;51.060;-0.086;2022-07-23T00:50:26;100508.96;;;14.74;62.14
57885;BME280;43703;51.060;-0.086;2022-07-23T00:52:53;100507.50;;;15.26;61.66
57885;BME280;43703;51.060;-0.086;2022-07-23T00:55:17;100506.82;;;15.48;61.27
57885;BME280;43703;51.060;-0.086;2022-07-23T00:57:43;100506.73;;;15.18;61.44
57885;BME280;43703;51.060;-0.086;2022-07-23T01:00:09;100509.21;;;14.83;61.55
57885;BME280;43703;51.060;-0.086;2022-07-23T01:02:33;100510.61;;;15.06;61.45
57885;BME280;43703;51.060;-0.086;2022-07-23T01:04:58;100509.22;;;15.04;61.02
57885;BME280;43703;51.060;-0.086;2022-07-23T01:07:23;100509.36;;;14.98;61.38
57885;BME280;43703;51.060;-0.086;2022-07-23T01:09:49;100510.20;;;14.73;61.46
57885;BME280;43703;51.060;-0.086;2022-07-23T01:12:13;100507.86;;;15.37;61.12
57885;BME280;43703;51.060;-0.086;2022-07-23T01:14:39;100509.64;;;14.96;60.80
57885;BME280;43703;51.060;-0.086;2022-07-23T01:17:04;100504.09;;;14.89;61.59
57885;BME280;43703;51.060;-0.086;2022-07-23T01:19:29;100500.98;;;14.84;61.63
57885;BME280;43703;51.060;-0.086;2022-07-23T01:21:55;100498.51;;;14.84;62.12
57885;BME280;43703;51.060;-0.086;2022-07-23T01:24:19;100501.80;;;14.64;61.67
57885;BME280;43703;51.060;-0.086;2022-07-23T01:26:45;100504.27;;;14.97;62.26
57885;BME280;43703;51.060;-0.086;2022-07-23T01:29:11;100506.19;;;14.90;61.87
57885;BME280;43703;51.060;-0.086;2022-07-23T01:31:35;100505.04;;;14.79;61.16
57885;BME280;43703;51.060;-0.086;2022-07-23T01:34:00;100503.10;;;14.96;60.92
57885;BME280;43703;51.060;-0.086;2022-07-23T01:36:25;100503.00;;;14.78;62.07
57885;BME280;43703;51.060;-0.086;2022-07-23T01:38:50;100506.16;;;14.52;61.73
57885;BME280;43703;51.060;-0.086;2022-07-23T01:41:16;100506.62;;;14.99;61.56
57885;BME280;43703;51.060;-0.086;2022-07-23T01:43:41;100506.04;;;14.49;61.23
57885;BME280;43703;51.060;-0.086;2022-07-23T01:46:06;100509.50;;;14.80;60.97
57885;BME280;43703;51.060;-0.086;2022-07-23T01:48:31;100506.48;;;14.45;61.32
57885;BME280;43703;51.060;-0.086;2022-07-23T01:50:56;100504.44;;;14.69;61.36
57885;BME280;43703;51.060;-0.086;2022-07-23T01:53:22;100501.16;;;14.43;61.82
57885;BME280;43703;51.060;-0.086;2022-07-23T01:55:46;100499.29;;;14.12;62.15
57885;BME280;43703;51.060;-0.086;2022-07-23T01:58:12;100499.47;;;14.57;61.92
57885;BME280;43703;51.060;-0.086;2022-07-23T02:00:38;100497.17;;;14.01;62.65
57885;BME280;43703;51.060;-0.086;2022-07-23T02:03:03;100496.93;;;14.52;62.52
57885;BME280;43703;51.060;-0.086;2022-07-23T02:05:29;100493.16;;;14.58;62.47
57885;BME280;43703;51.060;-0.086;2022-07-23T02:07:53;100492.56;;;14.85;62.43
57885;BME280;43703;51.060;-0.086;2022-07-23T02:10:18;100493.15;;;14.66;62.45
57885;BME280;43703;51.060;-0.086;2022-07-23T02:12:43;100497.73;;;14.83;61.77
57885;BME280;43703;51.060;-0.086;2022-07-23T02:15:08;100498.71;;;14.61;62.30
57885;BME280;43703;51.060;-0.086;2022-07-23T02:17:33;100500.22;;;14.48;62.07
57885;BME280;43703;51.060;-0.086;2022-07-23T02:19:58;100496.38;;;14.55;62.45
57885;BME280;43703;51.060;-0.086;2022-07-23T02:22:23;100501.44;;;14.72;61.70
57885;BME280;43703;51.060;-0.086;2022-07-23T02:24:48;100504.40;;;14.36;61.59
57885;BME280;43703;51.060;-0.086;2022-07-23T02:27:14;100505.22;;;14.13;62.31
57885;BME280;43703;51.060;-0.086;2022-07-23T02:29:39;100503.71;;;14.01;62.45
57885;BME280;43703;51.060;-0.086;2022-07-23T02:32:04;100511.27;;;14.40;61.97
57885;BME280;43703;51.060;-0.086;2022-07-23T02:34:29;100515.05;;;14.58;62.25
57885;BME280;43703;51.060;-0.086;2022-07-23T02:36:54;100513.43;;;14.31;62.54
57885;BME280;43703;51.060;-0.086;2022-07-23T02:39:19;100510.26;;;14.33;62.95
57885;BME280;43703;51.060;-0.086;2022-07-23T02:41:44;100509.67;;;14.17;62.67
57885;BME280;43703;51.060;-0.086;2022-07-23T02:44:09;100510.87;;;14.48;62.08
57885;BME280;43703;51.060;-0.086;2022-07-23T02:46:34;100507.36;;;14.35;62.42
57885;BME280;43703;51.060;-0.086;2022-07-23T02:48:59;100504.60;;;14.30;62.26
57885;BME280;43703;51.060;-0.086;2022-07-23T02:51:24;100507.14;;;14.30;62.36
57885;BME280;43703;51.060;-0.086;2022-07-23T02:53:49;100505.92;;;14.71;62.21
57885;BME280;43703;51.060;-0.086;2022-07-23T02:56:14;100503.39;;;14.16;63.01
57885;BME280;43703;51.060;-0.086;2022-07-23T02:58:39;100499.49;;;14.45;63.03
57885;BME280;43703;51.060;-0.086;2022-07-23T03:01:04;100502.84;;;14.28;63.07
57885;BME280;43703;51.060;-0.086;2022-07-23T03:03:30;100499.98;;;14.34;63.63
57885;BME280;43703;51.060;-0.086;2022-07-23T03:05:55;100503.16;;;14.79;62.83
57885;BME280;43703;51.060;-0.086;2022-07-23T03:08:20;100501.84;;;14.41;63.27
57885;BME280;43703;51.060;-0.086;2022-07-23T03:10:45;100500.02;;;14.56;63.27
57885;BME280;43703;51.060;-0.086;2022-07-23T03:13:10;100499.92;;;14.52;63.39
57885;BME280;43703;51.060;-0.086;2022-07-23T03:15:35;100505.11;;;14.77;62.85
57885;BME280;43703;51.060;-0.086;2022-07-23T03:18:00;100508.08;;;14.50;63.29
57885;BME280;43703;51.060;-0.086;2022-07-23T03:20:25;100511.13;;;14.75;63.00
57885;BME280;43703;51.060;-0.086;2022-07-23T03:22:50;100513.06;;;14.93;63.10
57885;BME280;43703;51.060;-0.086;2022-07-23T03:25:15;100510.84;;;14.92;62.62
57885;BME280;43703;51.060;-0.086;2022-07-23T03:27:40;100506.55;;;14.69;63.24
57885;BME280;43703;51.060;-0.086;2022-07-23T03:30:07;100508.00;;;14.68;62.50
57885;BME280;43703;51.060;-0.086;2022-07-23T03:32:30;100507.62;;;14.59;62.50
57885;BME280;43703;51.060;-0.086;2022-07-23T03:34:55;100509.46;;;15.15;61.82
57885;BME280;43703;51.060;-0.086;2022-07-23T03:37:21;100511.31;;;14.41;61.99
57885;BME280;43703;51.060;-0.086;2022-07-23T03:39:46;100506.96;;;14.61;62.02
57885;BME280;43703;51.060;-0.086;2022-07-23T03:42:11;100506.48;;;14.15;62.42
57885;BME280;43703;51.060;-0.086;2022-07-23T03:44:37;100504.61;;;14.65;62.05
57885;BME280;43703;51.060;-0.086;2022-07-23T03:47:01;100506.72;;;14.52;61.55
57885;BME280;43703;51.060;-0.086;2022-07-23T03:49:26;100505.15;;;14.16;62.17
57885;BME280;43703;51.060;-0.086;2022-07-23T03:51:51;100502.38;;;14.00;62.18
57885;BME280;43703;51.060;-0.086;2022-07-23T03:54:17;100501.77;;;14.42;62.11
57885;BME280;43703;51.060;-0.086;2022-07-23T03:56:42;100501.74;;;14.02;62.42
57885;BME280;43703;51.060;-0.086;2022-07-23T03:59:07;100501.89;;;14.39;62.08
57885;BME280;43703;51.060;-0.086;2022-07-23T04:01:32;100503.12;;;14.37;62.01
57885;BME280;43703;51.060;-0.086;2022-07-23T04:03:57;100499.73;;;14.27;62.20
57885;BME280;43703;51.060;-0.086;2022-07-23T04:06:22;100499.78;;;14.25;62.47
57885;BME280;43703;51.060;-0.086;2022-07-23T04:08:47;100498.00;;;13.69;63.29
57885;BME280;43703;51.060;-0.086;2022-07-23T04:11:13;100499.97;;;14.08;62.49
57885;BME280;43703;51.060;-0.086;2022-07-23T04:13:38;100498.13;;;13.89;63.33
57885;BME280;43703;51.060;-0.086;2022-07-23T04:16:03;100498.27;;;14.14;63.11
57885;BME280;43703;51.060;-0.086;2022-07-23T04:18:28;100498.39;;;14.01;63.40
57885;BME280;43703;51.060;-0.086;2022-07-23T04:20:53;100495.58;;;14.44;63.11
57885;BME280;43703;51.060;-0.086;2022-07-23T04:23:19;100496.30;;;14.40;62.88
57885;BME280;43703;51.060;-0.086;2022-07-23T04:25:44;100498.59;;;14.18;63.21
57885;BME280;43703;51.060;-0.086;2022-07-23T04:28:08;100493.46;;;14.30;62.88
57885;BME280;43703;51.060;-0.086;2022-07-23T04:30:34;100494.24;;;14.24;62.90
57885;BME280;43703;51.060;-0.086;2022-07-23T04:32:58;100497.40;;;14.23;62.60
57885;BME280;43703;51.060;-0.086;2022-07-23T04:35:23;100498.38;;;14.64;62.45
57885;BME280;43703;51.060;-0.086;2022-07-23T04:37:48;100505.77;;;14.44;62.91
57885;BME280;43703;51.060;-0.086;2022-07-23T04:40:13;100504.80;;;14.32;62.56
57885;BME280;43703;51.060;-0.086;2022-07-23T04:42:39;100510.00;;;14.44;62.51
57885;BME280;43703;51.060;-0.086;2022-07-23T04:45:04;100508.56;;;14.50;62.64
57885;BME280;43703;51.060;-0.086;2022-07-23T04:47:28;100512.82;;;14.41;62.76
57885;BME280;43703;51.060;-0.086;2022-07-23T04:49:53;100511.49;;;14.13;62.85
57885;BME280;43703;51.060;-0.086;2022-07-23T04:52:18;100508.27;;;14.16;63.12
57885;BME280;43703;51.060;-0.086;2022-07-23T04:54:44;100509.97;;;14.45;62.99
57885;BME280;43703;51.060;-0.086;2022-07-23T04:57:09;100506.57;;;14.56;62.64
57885;BME280;43703;51.060;-0.086;2022-07-23T04:59:34;100499.33;;;14.51;62.88
57885;BME280;43703;51.060;-0.086;2022-07-23T05:01:59;100502.63;;;14.69;62.78
57885;BME280;43703;51.060;-0.086;2022-07-23T05:04:24;100501.27;;;14.63;63.32
57885;BME280;43703;51.060;-0.086;2022-07-23T05:06:50;100504.38;;;14.64;63.29
57885;BME280;43703;51.060;-0.086;2022-07-23T05:09:15;100506.39;;;14.67;63.72
57885;BME280;43703;51.060;-0.086;2022-07-23T05:11:40;100509.05;;;14.81;63.32
57885;BME280;43703;51.060;-0.086;2022-07-23T05:14:05;100512.38;;;14.96;63.01
57885;BME280;43703;51.060;-0.086;2022-07-23T05:16:30;100514.77;;;14.82;62.81
57885;BME280;43703;51.060;-0.086;2022-07-23T05:18:56;100518.84;;;14.53;63.12
57885;BME280;43703;51.060;-0.086;2022-07-23T05:21:21;100520.24;;;14.53;63.35
57885;BME280;43703;51.060;-0.086;2022-07-23T05:23:46;100517.76;;;14.73;62.85
57885;BME280;43703;51.060;-0.086;2022-07-23T05:26:11;100517.59;;;15.10;62.85
57885;BME280;43703;51.060;-0.086;2022-07-23T05:28:36;100519.10;;;15.05;63.41
57885;BME280;43703;51.060;-0.086;2022-07-23T05:31:01;100521.09;;;14.84;63.39
57885;BME280;43703;51.060;-0.086;2022-07-23T05:33:26;100519.46;;;15.22;62.62
57885;BME280;43703;51.060;-0.086;2022-07-23T05:35:51;100518.57;;;15.29;62.42
57885;BME280;43703;51.060;-0.086;2022-07-23T05:38:16;100521.45;;;15.19;63.08
57885;BME280;43703;51.060;-0.086;2022-07-23T05:40:41;100525.28;;;15.56;62.97
57885;BME280;43703;51.060;-0.086;2022-07-23T05:43:06;100521.74;;;15.51;63.14
57885;BME280;43703;51.060;-0.086;2022-07-23T05:45:31;100517.16;;;15.86;62.58
57885;BME280;43703;51.060;-0.086;2022-07-23T05:47:56;100515.05;;;15.80;62.98
57885;BME280;43703;51.060;-0.086;2022-07-23T05:50:21;100514.95;;;15.92;62.57
57885;BME280;43703;51.060;-0.086;2022-07-23T05:52:46;100517.54;;;15.86;62.90
57885;BME280;43703;51.060;-0.086;2022-07-23T05:55:11;100522.32;;;15.93;62.60
57885;BME280;43703;51.060;-0.086;2022-07-23T05:57:37;100521.29;;;16.17;62.60
57885;BME280;43703;51.060;-0.086;2022-07-23T06:00:02;100517.70;;;16.20;62.22
57885;BME280;43703;51.060;-0.086;2022-07-23T06:02:26;100514.74;;;15.48;61.93
57885;BME280;43703;51.060;-0.086;2022-07-23T06:04:51;100524.33;;;15.12;63.95
57885;BME280;43703;51.060;-0.086;2022-07-23T06:07:16;100523.95;;;14.77;66.42
57885;BME280;43703;51.060;-0.086;2022-07-23T06:09:41;100525.28;;;14.99;65.72
57885;BME280;43703;51.060;-0.086;2022-07-23T06:12:07;100522.96;;;14.91;65.07
57885;BME280;43703;51.060;-0.086;2022-07-23T06:14:32;100522.69;;;14.88;65.05
57885;BME280;43703;51.060;-0.086;2022-07-23T06:16:58;100516.87;;;14.30;66.67
57885;BME280;43703;51.060;-0.086;2022-07-23T06:19:23;100517.94;;;14.58;67.17
57885;BME280;43703;51.060;-0.086;2022-07-23T06:21:48;100513.39;;;15.04;66.12
57885;BME280;43703;51.060;-0.086;2022-07-23T06:24:13;100515.47;;;15.35;65.22
57885;BME280;43703;51.060;-0.086;2022-07-23T06:26:39;100516.99;;;15.74;65.51
57885;BME280;43703;51.060;-0.086;2022-07-23T06:29:04;100513.10;;;15.76;65.22
57885;BME280;43703;51.060;-0.086;2022-07-23T06:31:29;100516.09;;;16.03;63.61
57885;BME280;43703;51.060;-0.086;2022-07-23T06:33:55;100514.52;;;17.62;61.42
57885;BME280;43703;51.060;-0.086;2022-07-23T06:36:20;100512.17;;;18.38;60.02
57885;BME280;43703;51.060;-0.086;2022-07-23T06:38:46;100516.36;;;18.42;57.19
57885;BME280;43703;51.060;-0.086;2022-07-23T06:41:12;100521.25;;;18.67;57.71
57885;BME280;43703;51.060;-0.086;2022-07-23T06:43:37;100523.28;;;18.81;58.91
57885;BME280;43703;51.060;-0.086;2022-07-23T06:46:03;100527.13;;;19.37;56.77
57885;BME280;43703;51.060;-0.086;2022-07-23T06:48:29;100530.85;;;19.17;55.96
57885;BME280;43703;51.060;-0.086;2022-07-23T06:50:54;100531.40;;;18.74;55.92
57885;BME280;43703;51.060;-0.086;2022-07-23T06:53:19;100532.65;;;18.16;58.72
57885;BME280;43703;51.060;-0.086;2022-07-23T06:55:45;100533.62;;;19.25;56.63
57885;BME280;43703;51.060;-0.086;2022-07-23T06:58:11;100533.94;;;20.91;55.08
57885;BME280;43703;51.060;-0.086;2022-07-23T07:00:37;100529.11;;;20.43;55.40
57885;BME280;43703;51.060;-0.086;2022-07-23T07:03:03;100528.18;;;20.67;55.17
57885;BME280;43703;51.060;-0.086;2022-07-23T07:05:28;100531.93;;;20.87;52.81
57885;BME280;43703;51.060;-0.086;2022-07-23T07:07:54;100537.76;;;21.78;55.80
57885;BME280;43703;51.060;-0.086;2022-07-23T07:10:19;100538.60;;;22.03;50.14
57885;BME280;43703;51.060;-0.086;2022-07-23T07:12:45;100538.38;;;21.89;52.06
57885;BME280;43703;51.060;-0.086;2022-07-23T07:15:11;100538.13;;;22.07;51.37
57885;BME280;43703;51.060;-0.086;2022-07-23T07:17:37;100540.32;;;22.64;50.95
57885;BME280;43703;51.060;-0.086;2022-07-23T07:20:04;100544.90;;;22.36;52.79
57885;BME280;43703;51.060;-0.086;2022-07-23T07:22:28;100542.95;;;21.50;50.49
57885;BME280;43703;51.060;-0.086;2022-07-23T07:24:54;100541.31;;;23.05;53.00
57885;BME280;43703;51.060;-0.086;2022-07-23T07:27:20;100537.61;;;22.55;47.05
57885;BME280;43703;51.060;-0.086;2022-07-23T07:29:46;100541.39;;;21.79;49.51
57885;BME280;43703;51.060;-0.086;2022-07-23T07:32:12;100547.43;;;22.64;49.51
57885;BME280;43703;51.060;-0.086;2022-07-23T07:34:37;100547.33;;;22.51;51.53
57885;BME280;43703;51.060;-0.086;2022-07-23T07:37:03;100549.84;;;22.78;47.96
57885;BME280;43703;51.060;-0.086;2022-07-23T07:39:29;100551.81;;;22.92;47.36
57885;BME280;43703;51.060;-0.086;2022-07-23T07:41:54;100554.34;;;23.39;45.97
57885;BME280;43703;51.060;-0.086;2022-07-23T07:44:20;100553.07;;;23.51;44.12
57885;BME280;43703;51.060;-0.086;2022-07-23T07:46:46;100552.73;;;23.28;44.09
57885;BME280;43703;51.060;-0.086;2022-07-23T07:49:12;100553.63;;;23.94;46.57
57885;BME280;43703;51.060;-0.086;2022-07-23T07:51:38;100556.22;;;23.36;42.94
57885;BME280;43703;51.060;-0.086;2022-07-23T07:54:04;100554.79;;;24.56;44.70
57885;BME280;43703;51.060;-0.086;2022-07-23T07:56:29;100557.35;;;25.46;43.35
57885;BME280;43703;51.060;-0.086;2022-07-23T07:58:55;100559.75;;;24.74;42.42
57885;BME280;43703;51.060;-0.086;2022-07-23T08:01:21;100559.05;;;23.34;43.61
57885;BME280;43703;51.060;-0.086;2022-07-23T08:03:47;100554.73;;;24.27;46.04
57885;BME280;43703;51.060;-0.086;2022-07-23T08:06:12;100558.93;;;23.76;42.93
57885;BME280;43703;51.060;-0.086;2022-07-23T08:08:38;100554.62;;;23.88;46.13
57885;BME280;43703;51.060;-0.086;2022-07-23T08:11:04;100554.76;;;23.28;43.99
57885;BME280;43703;51.060;-0.086;2022-07-23T08:13:30;100558.11;;;23.07;43.79
57885;BME280;43703;51.060;-0.086;2022-07-23T08:15:56;100552.24;;;24.34;43.69
57885;BME280;43703;51.060;-0.086;2022-07-23T08:18:22;100550.99;;;23.82;39.74
57885;BME280;43703;51.060;-0.086;2022-07-23T08:20:47;100554.81;;;23.71;42.10
57885;BME280;43703;51.060;-0.086;2022-07-23T08:23:13;100560.89;;;23.19;43.40
57885;BME280;43703;51.060;-0.086;2022-07-23T08:25:41;100563.00;;;23.66;41.65
57885;BME280;43703;51.060;-0.086;2022-07-23T08:28:07;100563.05;;;23.60;41.87
57885;BME280;43703;51.060;-0.086;2022-07-23T08:30:32;100559.69;;;24.18;42.07
57885;BME280;43703;51.060;-0.086;2022-07-23T08:32:58;100552.71;;;23.95;41.16
57885;BME280;43703;51.060;-0.086;2022-07-23T08:35:24;100554.94;;;24.30;40.54
57885;BME280;43703;51.060;-0.086;2022-07-23T08:37:48;100559.54;;;24.05;42.73
57885;BME280;43703;51.060;-0.086;2022-07-23T08:40:14;100561.06;;;24.02;39.84
57885;BME280;43703;51.060;-0.086;2022-07-23T08:42:40;100567.02;;;24.00;40.57
57885;BME280;43703;51.060;-0.086;2022-07-23T08:45:08;100567.52;;;24.55;41.27
57885;BME280;43703;51.060;-0.086;2022-07-23T08:47:32;100569.11;;;24.21;38.57
57885;BME280;43703;51.060;-0.086;2022-07-23T08:49:58;100570.03;;;25.01;36.34
57885;BME280;43703;51.060;-0.086;2022-07-23T08:52:24;100568.22;;;25.28;37.96
57885;BME280;43703;51.060;-0.086;2022-07-23T08:54:50;100563.63;;;25.61;37.61
57885;BME280;43703;51.060;-0.086;2022-07-23T08:57:15;100564.63;;;25.59;35.52
57885;BME280;43703;51.060;-0.086;2022-07-23T08:59:41;100561.88;;;24.32;35.71
57885;BME280;43703;51.060;-0.086;2022-07-23T09:02:07;100562.89;;;25.46;36.80
57885;BME280;43703;51.060;-0.086;2022-07-23T09:04:33;100556.38;;;25.23;36.80
57885;BME280;43703;51.060;-0.086;2022-07-23T09:06:58;100560.36;;;27.27;38.84
57885;BME280;43703;51.060;-0.086;2022-07-23T09:09:24;100562.15;;;27.88;35.04
57885;BME280;43703;51.060;-0.086;2022-07-23T09:14:17;100558.37;;;27.21;33.10
57885;BME280;43703;51.060;-0.086;2022-07-23T09:16:41;100555.43;;;29.15;34.51
57885;BME280;43703;51.060;-0.086;2022-07-23T09:19:07;100560.34;;;27.21;30.91
57885;BME280;43703;51.060;-0.086;2022-07-23T09:21:35;100556.16;;;27.38;35.36
57885;BME280;43703;51.060;-0.086;2022-07-23T09:24:00;100552.08;;;27.96;33.35
57885;BME280;43703;51.060;-0.086;2022-07-23T09:26:30;100554.16;;;27.50;32.15
57885;BME280;43703;51.060;-0.086;2022-07-23T09:28:54;100553.45;;;26.08;35.12
57885;BME280;43703;51.060;-0.086;2022-07-23T09:31:17;100561.03;;;26.98;31.38
57885;BME280;43703;51.060;-0.086;2022-07-23T09:33:42;100558.77;;;25.77;31.16
57885;BME280;43703;51.060;-0.086;2022-07-23T09:36:08;100566.25;;;27.41;31.20
57885;BME280;43703;51.060;-0.086;2022-07-23T09:38:34;100564.77;;;25.97;32.93
57885;BME280;43703;51.060;-0.086;2022-07-23T09:41:05;100569.18;;;27.80;35.14
57885;BME280;43703;51.060;-0.086;2022-07-23T09:43:27;100576.98;;;27.54;32.06
57885;BME280;43703;51.060;-0.086;2022-07-23T09:45:51;100575.45;;;28.30;31.98
57885;BME280;43703;51.060;-0.086;2022-07-23T09:48:17;100583.62;;;27.11;30.83
57885;BME280;43703;51.060;-0.086;2022-07-23T09:50:43;100574.41;;;27.58;31.91
57885;BME280;43703;51.060;-0.086;2022-07-23T09:53:08;100573.80;;;26.53;31.73
57885;BME280;43703;51.060;-0.086;2022-07-23T09:55:35;100573.40;;;28.19;34.53
57885;BME280;43703;51.060;-0.086;2022-07-23T09:57:58;100573.95;;;28.01;30.99
57885;BME280;43703;51.060;-0.086;2022-07-23T10:00:24;100578.79;;;29.33;34.06
57885;BME280;43703;51.060;-0.086;2022-07-23T10:02:49;100579.78;;;28.08;31.20
57885;BME280;43703;51.060;-0.086;2022-07-23T10:05:14;100575.30;;;30.89;33.08
57885;BME280;43703;51.060;-0.086;2022-07-23T10:07:40;100571.54;;;28.68;29.74
57885;BME280;43703;51.060;-0.086;2022-07-23T10:10:06;100572.27;;;30.31;31.90
57885;BME280;43703;51.060;-0.086;2022-07-23T10:12:30;100562.68;;;29.18;26.37
57885;BME280;43703;51.060;-0.086;2022-07-23T10:14:56;100562.53;;;29.37;28.92
57885;BME280;43703;51.060;-0.086;2022-07-23T10:17:20;100565.42;;;29.46;27.72
57885;BME280;43703;51.060;-0.086;2022-07-23T10:19:45;100566.61;;;28.84;30.09
57885;BME280;43703;51.060;-0.086;2022-07-23T10:22:13;100563.76;;;29.41;27.23
57885;BME280;43703;51.060;-0.086;2022-07-23T10:24:52;100565.30;;;28.23;27.25
57885;BME280;43703;51.060;-0.086;2022-07-23T10:27:09;100562.90;;;29.35;27.97
57885;BME280;43703;51.060;-0.086;2022-07-23T10:29:37;100568.96;;;28.14;28.39
57885;BME280;43703;51.060;-0.086;2022-07-23T10:31:58;100570.86;;;28.36;29.53
57885;BME280;43703;51.060;-0.086;2022-07-23T10:34:21;100572.10;;;27.40;30.72
57885;BME280;43703;51.060;-0.086;2022-07-23T10:36:47;100567.92;;;29.34;32.94
57885;BME280;43703;51.060;-0.086;2022-07-23T10:39:08;100566.98;;;28.47;27.79
57885;BME280;43703;51.060;-0.086;2022-07-23T10:41:32;100561.65;;;29.53;28.04
57885;BME280;43703;51.060;-0.086;2022-07-23T10:46:23;100562.15;;;27.49;31.42
57885;BME280;43703;51.060;-0.086;2022-07-23T10:51:13;100555.79;;;28.74;27.93
57885;BME280;43703;51.060;-0.086;2022-07-23T10:56:01;100553.88;;;27.01;27.02
57885;BME280;43703;51.060;-0.086;2022-07-23T11:00:53;100557.78;;;27.39;30.01
57885;BME280;43703;51.060;-0.086;2022-07-23T11:05:46;100556.53;;;30.12;31.29
57885;BME280;43703;51.060;-0.086;2022-07-23T11:08:12;100549.51;;;28.89;27.48
57885;BME280;43703;51.060;-0.086;2022-07-23T11:10:35;100547.89;;;29.55;28.49
57885;BME280;43703;51.060;-0.086;2022-07-23T11:15:24;100543.48;;;28.79;28.42
57885;BME280;43703;51.060;-0.086;2022-07-23T11:17:59;100547.98;;;28.96;29.39
57885;BME280;43703;51.060;-0.086;2022-07-23T11:20:19;100549.93;;;28.07;28.71
57885;BME280;43703;51.060;-0.086;2022-07-23T11:22:46;100550.36;;;27.81;29.14
57885;BME280;43703;51.060;-0.086;2022-07-23T11:25:05;100557.98;;;28.62;28.16
57885;BME280;43703;51.060;-0.086;2022-07-23T11:27:36;100551.78;;;30.31;29.78
57885;BME280;43703;51.060;-0.086;2022-07-23T11:29:55;100551.73;;;29.95;26.04
57885;BME280;43703;51.060;-0.086;2022-07-23T11:34:46;100549.58;;;29.74;29.43
57885;BME280;43703;51.060;-0.086;2022-07-23T11:37:12;100549.92;;;29.36;28.16
57885;BME280;43703;51.060;-0.086;2022-07-23T11:39:36;100546.65;;;28.10;27.72
57885;BME280;43703;51.060;-0.086;2022-07-23T11:42:02;100549.98;;;28.21;29.16
57885;BME280;43703;51.060;-0.086;2022-07-23T11:44:26;100547.88;;;30.38;28.23
57885;BME280;43703;51.060;-0.086;2022-07-23T11:46:55;100548.13;;;30.48;28.23
57885;BME280;43703;51.060;-0.086;2022-07-23T11:49:15;100550.15;;;31.14;25.39
57885;BME280;43703;51.060;-0.086;2022-07-23T11:51:41;100549.38;;;29.79;27.20
57885;BME280;43703;51.060;-0.086;2022-07-23T11:54:07;100555.69;;;28.82;28.33
57885;BME280;43703;51.060;-0.086;2022-07-23T11:56:33;100554.04;;;28.52;29.44
57885;BME280;43703;51.060;-0.086;2022-07-23T11:58:59;100554.51;;;26.60;30.72
57885;BME280;43703;51.060;-0.086;2022-07-23T12:01:25;100549.47;;;29.16;31.15
57885;BME280;43703;51.060;-0.086;2022-07-23T12:03:51;100549.94;;;28.73;29.02
57885;BME280;43703;51.060;-0.086;2022-07-23T12:06:16;100548.97;;;27.74;29.44
57885;BME280;43703;51.060;-0.086;2022-07-23T12:08:42;100544.85;;;28.29;29.88
57885;BME280;43703;51.060;-0.086;2022-07-23T12:11:08;100552.33;;;28.76;29.13
57885;BME280;43703;51.060;-0.086;2022-07-23T12:13:34;100546.01;;;27.33;30.91
57885;BME280;43703;51.060;-0.086;2022-07-23T12:15:59;100556.09;;;26.59;30.92
57885;BME280;43703;51.060;-0.086;2022-07-23T12:18:26;100557.69;;;25.68;29.30
57885;BME280;43703;51.060;-0.086;2022-07-23T12:20:53;100565.61;;;25.75;30.10
57885;BME280;43703;51.060;-0.086;2022-07-23T12:23:20;100558.59;;;25.03;32.50
57885;BME280;43703;51.060;-0.086;2022-07-23T12:25:45;100551.32;;;24.64;31.05
57885;BME280;43703;51.060;-0.086;2022-07-23T12:28:11;100557.62;;;23.81;32.52
57885;BME280;43703;51.060;-0.086;2022-07-23T12:30:39;100558.93;;;23.89;32.73
57885;BME280;43703;51.060;-0.086;2022-07-23T12:33:01;100551.99;;;24.67;31.82
57885;BME280;43703;51.060;-0.086;2022-07-23T12:35:33;100547.21;;;25.07;30.53
57885;BME280;43703;51.060;-0.086;2022-07-23T12:37:52;100547.99;;;23.68;31.69
57885;BME280;43703;51.060;-0.086;2022-07-23T12:40:20;100539.85;;;24.03;33.43
57885;BME280;43703;51.060;-0.086;2022-07-23T12:42:43;100538.28;;;23.59;31.14
57885;BME280;43703;51.060;-0.086;2022-07-23T12:45:10;100540.41;;;23.61;31.47
57885;BME280;43703;51.060;-0.086;2022-07-23T12:50:00;100541.05;;;22.93;32.27
57885;BME280;43703;51.060;-0.086;2022-07-23T12:52:28;100538.51;;;22.71;32.48